Time;durP1;ratioP1;P1;durP2;ratioP2;P2;SDS_P1;SDS_P2;PMS_P1;PMS_P2;Temp;Humidity;BMP_temperature;BMP_pressure;BME280_temperature;BME280_humidity;BME280_pressure;Samples;Min_cycle;Max_cycle;Signal;HPM_P1;HPM_P2
2023/05/28 00:01:29;;;;;;;13.02;3.13;;;14.00;99.90;;;;;;5086336;28;20074;-70
2023/05/28 00:03:54;;;;;;;11.05;3.35;;;14.00;99.90;;;;;;5086691;28;20031;-70
2023/05/28 00:06:23;;;;;;;16.52;3.33;;;14.00;99.90;;;;;;5087985;28;20048;-71
2023/05/28 00:08:48;;;;;;;13.80;3.08;;;14.00;99.90;;;;;;5085241;28;20023;-70
2023/05/28 00:11:14;;;;;;;16.48;4.93;;;14.00;99.90;;;;;;5084882;28;20613;-71
2023/05/28 00:13:45;;;;;;;15.75;3.55;;;14.00;99.90;;;;;;5084371;28;20448;-72
2023/05/28 00:16:12;;;;;;;13.30;3.13;;;13.90;99.90;;;;;;5081246;28;20024;-70
2023/05/28 00:18:41;;;;;;;15.45;4.47;;;13.90;99.90;;;;;;5084779;28;20024;-70
2023/05/28 00:21:19;;;;;;;15.25;3.10;;;13.90;99.90;;;;;;5086812;28;20585;-70
2023/05/28 00:23:50;;;;;;;19.95;3.92;;;13.90;99.90;;;;;;5077822;28;20519;-71
2023/05/28 00:26:15;;;;;;;24.58;5.25;;;13.80;99.90;;;;;;5087058;28;20031;-71
2023/05/28 00:28:41;;;;;;;23.45;3.72;;;13.80;99.90;;;;;;5084605;28;20032;-71
2023/05/28 00:31:07;;;;;;;9.93;2.83;;;13.80;99.90;;;;;;5089378;28;20032;-70
2023/05/28 00:33:43;;;;;;;13.18;3.80;;;13.80;99.90;;;;;;5084078;28;20111;-70
2023/05/28 00:36:10;;;;;;;13.63;3.00;;;13.80;99.90;;;;;;5083542;28;20024;-69
2023/05/28 00:38:38;;;;;;;17.48;3.38;;;13.80;99.90;;;;;;5084748;28;20055;-71
2023/05/28 00:41:04;;;;;;;14.93;3.10;;;13.70;99.90;;;;;;5084380;28;20035;-70
2023/05/28 00:43:30;;;;;;;17.30;3.83;;;13.70;99.90;;;;;;5084273;28;20032;-72
2023/05/28 00:46:06;;;;;;;13.77;3.35;;;13.70;99.90;;;;;;5088649;28;20503;-70
2023/05/28 00:48:32;;;;;;;16.48;3.47;;;13.70;99.90;;;;;;5086414;28;20435;-71
2023/05/28 00:51:07;;;;;;;13.38;3.78;;;13.60;99.90;;;;;;5088679;28;20032;-70
2023/05/28 00:53:33;;;;;;;16.98;3.58;;;13.60;99.90;;;;;;5085148;28;20448;-71
2023/05/28 00:56:11;;;;;;;14.13;4.00;;;13.60;99.90;;;;;;5085644;28;20504;-71
2023/05/28 00:58:43;;;;;;;11.15;2.90;;;13.50;99.90;;;;;;5083805;28;20109;-72
2023/05/28 01:01:11;;;;;;;14.75;3.38;;;13.50;99.90;;;;;;5088219;28;19923;-69
2023/05/28 01:03:43;;;;;;;12.45;3.00;;;13.50;99.90;;;;;;5084303;28;20024;-70
2023/05/28 01:06:12;;;;;;;22.13;4.75;;;13.40;99.90;;;;;;5084046;28;20056;-71
2023/05/28 01:08:38;;;;;;;12.27;2.95;;;13.40;99.90;;;;;;5090211;28;20032;-70
2023/05/28 01:11:26;;;;;;;13.60;4.00;;;13.40;99.90;;;;;;5084182;28;20709;-72
2023/05/28 01:13:52;;;;;;;19.45;4.07;;;13.40;99.90;;;;;;5078258;28;20028;-71
2023/05/28 01:16:18;;;;;;;20.50;4.50;;;13.40;99.90;;;;;;5085350;28;20218;-71
2023/05/28 01:18:55;;;;;;;17.58;4.50;;;13.30;99.90;;;;;;5085817;28;20573;-70
2023/05/28 01:21:30;;;;;;;15.00;3.50;;;13.30;99.90;;;;;;5084216;28;20036;-71
2023/05/28 01:23:58;;;;;;;11.45;3.53;;;13.30;99.90;;;;;;5084150;28;20510;-70
2023/05/28 01:26:30;;;;;;;15.35;3.88;;;13.30;99.90;;;;;;5088328;28;20032;-71
2023/05/28 01:28:58;;;;;;;17.65;4.32;;;13.30;99.90;;;;;;5086598;28;20020;-73
2023/05/28 01:31:24;;;;;;;16.50;3.10;;;13.30;99.90;;;;;;5088016;28;20031;-70
2023/05/28 01:33:52;;;;;;;24.08;3.67;;;13.20;99.90;;;;;;5092486;28;20024;-72
2023/05/28 01:36:19;;;;;;;19.75;4.80;;;13.30;99.90;;;;;;5092581;28;20096;-71
2023/05/28 01:38:47;;;;;;;17.08;4.38;;;13.20;99.90;;;;;;5084792;28;20024;-70
2023/05/28 01:41:14;;;;;;;13.27;4.20;;;13.30;99.90;;;;;;5084162;28;20028;-71
2023/05/28 01:43:41;;;;;;;17.75;4.65;;;13.20;99.90;;;;;;5089190;28;20032;-71
2023/05/28 01:46:06;;;;;;;11.73;4.00;;;13.20;99.90;;;;;;5094766;27;20503;-70
2023/05/28 01:48:34;;;;;;;12.57;2.65;;;13.20;99.90;;;;;;5089529;28;20036;-72
2023/05/28 01:51:00;;;;;;;14.07;3.70;;;13.10;99.90;;;;;;5090245;28;20051;-72
2023/05/28 01:53:25;;;;;;;13.05;3.30;;;13.10;99.90;;;;;;5088965;28;20060;-73
2023/05/28 01:55:52;;;;;;;19.15;4.03;;;13.00;99.90;;;;;;5089356;28;20020;-72
2023/05/28 01:58:17;;;;;;;16.75;4.88;;;13.10;99.90;;;;;;5089582;28;20524;-71
2023/05/28 02:01:18;;;;;;;14.40;4.20;;;13.00;99.90;;;;;;5095788;28;20060;-71
2023/05/28 02:03:43;;;;;;;13.40;3.53;;;13.00;99.90;;;;;;5088417;28;20032;-69
2023/05/28 02:06:15;;;;;;;14.95;3.75;;;13.00;99.90;;;;;;5089437;28;20028;-71
2023/05/28 02:08:41;;;;;;;18.50;4.20;;;13.00;99.90;;;;;;5079511;28;20028;-70
2023/05/28 02:11:07;;;;;;;15.80;3.95;;;12.90;99.90;;;;;;5087473;28;20027;-70
2023/05/28 02:13:39;;;;;;;16.73;3.55;;;13.00;99.90;;;;;;5088961;28;20036;-70
2023/05/28 02:16:06;;;;;;;15.27;3.97;;;12.90;99.90;;;;;;5087672;28;20044;-70
2023/05/28 02:18:31;;;;;;;17.05;4.38;;;13.00;99.90;;;;;;5089285;28;20040;-72
2023/05/28 02:21:00;;;;;;;23.13;3.95;;;13.00;99.90;;;;;;5095054;28;20468;-70
2023/05/28 02:23:25;;;;;;;18.55;3.85;;;12.90;99.90;;;;;;5087298;28;20056;-71
2023/05/28 02:25:57;;;;;;;21.67;5.18;;;12.90;99.90;;;;;;5087230;28;20109;-71
2023/05/28 02:28:28;;;;;;;16.60;4.22;;;13.00;99.90;;;;;;5089220;28;20036;-70
2023/05/28 02:30:54;;;;;;;13.88;4.03;;;13.00;99.90;;;;;;5087416;28;20040;-72
2023/05/28 02:33:19;;;;;;;17.88;4.32;;;13.00;99.90;;;;;;5088352;28;20142;-70
2023/05/28 02:35:48;;;;;;;18.10;3.90;;;13.00;99.90;;;;;;5086866;28;20119;-72
2023/05/28 02:38:13;;;;;;;16.20;4.43;;;12.90;99.90;;;;;;5090397;28;20032;-71
2023/05/28 02:40:39;;;;;;;14.93;4.07;;;12.90;99.90;;;;;;5088194;28;20032;-73
2023/05/28 02:43:05;;;;;;;19.15;3.17;;;13.00;99.90;;;;;;5089885;28;20042;-71
2023/05/28 02:45:30;;;;;;;15.93;3.80;;;12.90;99.90;;;;;;5087184;28;20114;-71
2023/05/28 02:47:56;;;;;;;17.33;4.00;;;12.90;99.90;;;;;;5087996;28;20032;-71
2023/05/28 02:50:21;;;;;;;13.75;3.65;;;12.90;99.90;;;;;;5092832;28;20042;-71
2023/05/28 02:52:50;;;;;;;13.18;4.28;;;12.90;99.90;;;;;;5086811;28;20032;-71
2023/05/28 02:55:15;;;;;;;18.77;4.13;;;12.80;99.90;;;;;;5089680;28;20046;-70
2023/05/28 02:57:44;;;;;;;18.27;4.00;;;12.70;99.90;;;;;;5093804;28;20035;-71
2023/05/28 03:00:19;;;;;;;17.10;4.18;;;12.70;99.90;;;;;;5092145;28;20032;-72
2023/05/28 03:02:48;;;;;;;15.35;4.38;;;12.70;99.90;;;;;;5094389;28;20115;-70
2023/05/28 03:05:13;;;;;;;18.00;3.83;;;12.70;99.90;;;;;;5086597;28;20280;-70
2023/05/28 03:07:39;;;;;;;22.48;5.07;;;12.60;99.90;;;;;;5086551;28;20472;-70
2023/05/28 03:10:15;;;;;;;20.63;3.67;;;12.60;99.90;;;;;;5086633;28;20028;-73
2023/05/28 03:12:41;;;;;;;18.27;4.18;;;12.60;99.90;;;;;;5086393;28;20039;-71
2023/05/28 03:15:07;;;;;;;19.98;4.65;;;12.60;99.90;;;;;;5092931;28;20376;-70
2023/05/28 03:17:32;;;;;;;13.07;4.20;;;12.50;99.90;;;;;;5095548;27;20123;-70
2023/05/28 03:20:01;;;;;;;24.65;4.30;;;12.50;99.90;;;;;;5086788;28;20038;-72
2023/05/28 03:22:29;;;;;;;19.20;4.88;;;12.50;99.90;;;;;;5086539;28;20435;-70
2023/05/28 03:24:57;;;;;;;14.32;3.88;;;12.50;99.90;;;;;;5098048;28;20040;-71
2023/05/28 03:27:22;;;;;;;13.50;3.92;;;12.50;99.90;;;;;;5093752;28;20119;-73
2023/05/28 03:29:48;;;;;;;18.08;4.43;;;12.40;99.90;;;;;;5088323;28;20218;-70
2023/05/28 03:32:13;;;;;;;18.20;3.88;;;12.50;99.90;;;;;;5091310;28;20036;-69
2023/05/28 03:34:45;;;;;;;11.98;3.70;;;12.40;99.90;;;;;;5088565;28;20767;-70
2023/05/28 03:37:11;;;;;;;12.23;3.83;;;12.40;99.90;;;;;;5087231;28;20032;-70
2023/05/28 03:39:36;;;;;;;20.38;4.18;;;12.30;99.90;;;;;;5086252;28;20138;-72
2023/05/28 03:42:02;;;;;;;13.18;3.22;;;12.30;99.90;;;;;;5090591;28;20043;-70
2023/05/28 03:44:30;;;;;;;12.05;3.58;;;12.30;99.90;;;;;;5089298;28;20036;-69
2023/05/28 03:46:56;;;;;;;15.68;3.72;;;12.30;99.90;;;;;;5085317;28;20032;-69
2023/05/28 03:49:21;;;;;;;12.38;3.90;;;12.30;99.90;;;;;;5086311;28;20367;-71
2023/05/28 03:51:53;;;;;;;20.88;3.83;;;12.30;99.90;;;;;;5085899;28;20036;-71
2023/05/28 03:54:18;;;;;;;26.95;5.00;;;12.40;99.90;;;;;;5088222;28;20377;-71
2023/05/28 03:56:44;;;;;;;18.58;3.95;;;12.40;99.90;;;;;;5090152;28;20033;-69
2023/05/28 03:59:09;;;;;;;13.65;3.25;;;12.40;99.90;;;;;;5087447;28;20450;-70
2023/05/28 04:01:36;;;;;;;18.08;4.65;;;12.40;99.90;;;;;;5096401;28;20032;-70
2023/05/28 04:04:02;;;;;;;15.13;4.05;;;12.40;99.90;;;;;;5089396;28;20028;-71
2023/05/28 04:06:34;;;;;;;10.40;3.78;;;12.50;99.90;;;;;;5088381;28;20028;-72
2023/05/28 04:09:00;;;;;;;13.07;3.80;;;12.40;99.90;;;;;;5089133;28;20798;-70
2023/05/28 04:11:28;;;;;;;14.77;4.20;;;12.50;99.90;;;;;;5095931;28;20031;-73
2023/05/28 04:13:54;;;;;;;23.10;4.25;;;12.50;99.90;;;;;;5088942;28;20028;-70
2023/05/28 04:16:29;;;;;;;13.57;3.50;;;12.50;99.90;;;;;;5085810;28;20016;-70
2023/05/28 04:18:55;;;;;;;15.15;4.93;;;12.60;99.90;;;;;;5094479;28;20052;-71
2023/05/28 04:21:23;;;;;;;12.57;4.18;;;12.50;99.90;;;;;;5094551;28;21260;-71
2023/05/28 04:23:49;;;;;;;13.13;4.00;;;12.60;99.90;;;;;;5097092;28;20390;-70
2023/05/28 04:26:16;;;;;;;12.65;3.42;;;12.60;99.90;;;;;;5087040;28;20028;-71
2023/05/28 04:28:41;;;;;;;14.45;3.10;;;12.60;99.90;;;;;;5085195;28;20028;-73
2023/05/28 04:31:07;;;;;;;14.02;3.15;;;12.60;99.90;;;;;;5094707;28;20032;-71
2023/05/28 04:33:39;;;;;;;15.85;3.10;;;12.60;99.90;;;;;;5086715;28;20028;-70
2023/05/28 04:36:08;;;;;;;14.77;3.55;;;12.60;99.90;;;;;;5085014;28;20035;-70
2023/05/28 04:38:33;;;;;;;17.98;3.60;;;12.60;99.90;;;;;;5087674;28;20445;-71
2023/05/28 04:41:04;;;;;;;20.48;4.15;;;12.60;99.90;;;;;;5092766;28;20032;-72
2023/05/28 04:43:30;;;;;;;13.70;3.42;;;12.50;99.90;;;;;;5090870;28;20036;-70
2023/05/28 04:45:58;;;;;;;16.02;3.65;;;12.60;99.90;;;;;;5089305;28;20424;-71
2023/05/28 04:48:27;;;;;;;14.85;3.75;;;12.60;99.90;;;;;;5089894;28;20028;-72
2023/05/28 04:50:56;;;;;;;14.07;3.50;;;12.60;99.90;;;;;;5111364;27;20028;-70
2023/05/28 04:53:25;;;;;;;11.68;3.40;;;12.60;99.90;;;;;;5087524;28;20059;-70
2023/05/28 04:55:51;;;;;;;10.90;4.05;;;12.60;99.90;;;;;;5078825;28;20832;-70
2023/05/28 04:58:17;;;;;;;14.00;4.15;;;12.60;99.90;;;;;;5090351;28;20031;-69
2023/05/28 05:00:45;;;;;;;20.50;4.25;;;12.70;99.90;;;;;;5084992;28;20097;-72
2023/05/28 05:03:11;;;;;;;12.32;2.97;;;12.70;99.90;;;;;;5084372;28;20238;-71
2023/05/28 05:05:40;;;;;;;17.35;3.67;;;12.70;99.90;;;;;;5096224;28;20681;-70
2023/05/28 05:08:05;;;;;;;15.85;3.10;;;12.70;99.90;;;;;;5088363;28;20095;-70
2023/05/28 05:10:31;;;;;;;13.07;3.72;;;12.80;99.90;;;;;;5085831;28;20510;-72
2023/05/28 05:12:56;;;;;;;10.85;3.45;;;12.80;99.90;;;;;;5084743;28;20039;-71
2023/05/28 05:15:32;;;;;;;16.48;2.92;;;12.90;99.90;;;;;;5084075;28;20144;-72
2023/05/28 05:17:58;;;;;;;9.07;3.33;;;13.00;99.90;;;;;;5076226;28;20039;-73
2023/05/28 05:20:27;;;;;;;12.57;4.07;;;13.00;99.90;;;;;;5098004;28;20032;-72
2023/05/28 05:22:52;;;;;;;10.52;3.67;;;13.10;99.90;;;;;;5085628;28;20446;-70
2023/05/28 05:25:21;;;;;;;16.95;3.42;;;13.10;99.90;;;;;;5085717;28;20028;-72
2023/05/28 05:27:50;;;;;;;14.90;3.88;;;13.20;99.90;;;;;;5085450;28;20062;-70
2023/05/28 05:30:16;;;;;;;10.20;2.80;;;13.30;99.90;;;;;;5083704;28;20036;-73
2023/05/28 05:32:41;;;;;;;10.82;3.40;;;13.30;99.90;;;;;;5083405;28;20679;-70
2023/05/28 05:35:07;;;;;;;15.30;3.08;;;13.40;99.90;;;;;;5083614;28;20032;-71
2023/05/28 05:37:33;;;;;;;17.50;4.25;;;13.60;99.90;;;;;;5085140;28;20123;-71
2023/05/28 05:40:05;;;;;;;10.10;3.22;;;13.90;99.90;;;;;;5084152;28;20387;-69
2023/05/28 05:42:30;;;;;;;12.50;3.17;;;14.20;99.90;;;;;;5082855;28;20043;-71
2023/05/28 05:44:59;;;;;;;14.88;3.90;;;14.60;99.90;;;;;;5084040;28;20032;-72
2023/05/28 05:47:25;;;;;;;8.48;2.65;;;15.10;99.90;;;;;;5083431;28;20035;-72
2023/05/28 05:49:51;;;;;;;9.85;3.05;;;15.60;99.90;;;;;;5083345;28;20039;-74
2023/05/28 05:52:16;;;;;;;14.52;3.55;;;16.00;99.90;;;;;;5085026;28;20095;-71
2023/05/28 05:54:42;;;;;;;13.63;2.80;;;16.60;99.90;;;;;;5085215;28;20128;-70
2023/05/28 05:57:09;;;;;;;11.13;3.08;;;16.90;99.90;;;;;;5086064;28;20056;-72
2023/05/28 05:59:34;;;;;;;7.97;2.42;;;17.10;99.90;;;;;;5085513;28;20071;-69
2023/05/28 06:02:00;;;;;;;11.25;3.05;;;17.30;99.90;;;;;;5089364;28;20480;-71
2023/05/28 06:04:31;;;;;;;8.15;2.80;;;17.60;99.90;;;;;;5084094;28;20028;-73
2023/05/28 06:06:57;;;;;;;12.65;3.15;;;18.10;99.90;;;;;;5087193;28;20024;-72
2023/05/28 06:09:23;;;;;;;8.10;2.72;;;18.50;99.90;;;;;;5082884;28;20043;-70
2023/05/28 06:11:51;;;;;;;10.68;2.85;;;19.10;99.90;;;;;;5081367;28;20056;-72
2023/05/28 06:14:17;;;;;;;6.50;2.40;;;19.20;99.90;;;;;;5087936;28;20042;-70
2023/05/28 06:16:42;;;;;;;8.30;3.10;;;19.30;99.90;;;;;;5086909;28;20036;-71
2023/05/28 06:19:08;;;;;;;15.80;2.92;;;19.50;99.90;;;;;;5083889;28;20043;-70
2023/05/28 06:21:33;;;;;;;9.93;2.55;;;19.70;99.90;;;;;;5083341;28;20055;-71
2023/05/28 06:23:59;;;;;;;12.18;2.75;;;19.90;99.90;;;;;;5085989;28;20041;-73
2023/05/28 06:26:24;;;;;;;11.82;3.08;;;20.10;99.90;;;;;;5083066;28;20024;-73
2023/05/28 06:28:50;;;;;;;10.35;2.95;;;20.00;99.90;;;;;;5091963;28;20063;-70
2023/05/28 06:31:16;;;;;;;9.15;2.92;;;19.60;99.90;;;;;;5094004;28;20679;-71
2023/05/28 06:33:41;;;;;;;10.25;3.38;;;19.00;99.90;;;;;;5086648;28;20032;-72
2023/05/28 06:36:08;;;;;;;11.07;3.67;;;18.90;99.90;;;;;;5087056;28;20392;-71
2023/05/28 06:38:36;;;;;;;10.35;3.30;;;19.30;99.90;;;;;;5086626;28;20471;-73
2023/05/28 06:41:02;;;;;;;8.82;2.92;;;19.90;99.90;;;;;;5093897;28;20074;-72
2023/05/28 06:43:30;;;;;;;9.15;3.08;;;20.30;99.90;;;;;;5092447;28;20444;-72
2023/05/28 06:45:56;;;;;;;9.85;3.38;;;20.30;99.90;;;;;;5090246;28;20132;-72
2023/05/28 06:48:21;;;;;;;9.88;2.80;;;20.70;99.90;;;;;;5098531;28;20126;-71
2023/05/28 06:50:53;;;;;;;9.90;3.10;;;21.20;99.90;;;;;;5089525;28;20084;-70
2023/05/28 06:53:19;;;;;;;9.75;2.47;;;22.10;99.90;;;;;;5104412;28;20087;-74
2023/05/28 06:55:47;;;;;;;7.82;2.88;;;23.30;98.10;;;;;;5106164;28;20066;-70
2023/05/28 06:58:16;;;;;;;7.55;3.30;;;24.10;97.50;;;;;;5095282;27;20059;-71
2023/05/28 07:00:41;;;;;;;10.73;4.03;;;24.80;95.80;;;;;;5088867;28;20031;-71
2023/05/28 07:03:08;;;;;;;18.23;4.25;;;25.20;94.50;;;;;;5090897;28;20036;-72
2023/05/28 07:05:35;;;;;;;10.23;3.00;;;25.80;94.10;;;;;;5092059;28;20033;-71
2023/05/28 07:08:01;;;;;;;16.60;4.07;;;26.10;93.60;;;;;;5090437;28;20032;-73
2023/05/28 07:10:30;;;;;;;8.95;3.45;;;26.60;92.10;;;;;;5087996;28;20081;-71
2023/05/28 07:12:55;;;;;;;13.77;4.07;;;26.90;92.40;;;;;;5091427;28;20119;-72
2023/05/28 07:15:24;;;;;;;11.68;4.15;;;27.40;92.40;;;;;;5087498;27;20134;-73
2023/05/28 07:17:49;;;;;;;13.18;4.30;;;27.80;90.90;;;;;;5091963;28;20044;-72
2023/05/28 07:20:16;;;;;;;9.48;4.07;;;28.10;90.50;;;;;;5094548;28;20042;-72
2023/05/28 07:22:53;;;;;;;11.77;4.07;;;28.50;90.40;;;;;;5090373;28;20040;-72
2023/05/28 07:25:19;;;;;;;12.90;4.90;;;29.30;88.00;;;;;;5084914;28;20858;-72
2023/05/28 07:27:44;;;;;;;12.93;4.40;;;29.10;87.90;;;;;;5092227;28;20040;-73
2023/05/28 07:30:10;;;;;;;10.15;4.45;;;29.10;87.30;;;;;;5089771;28;20105;-73
2023/05/28 07:32:36;;;;;;;12.27;4.45;;;29.30;86.40;;;;;;5087200;28;20040;-72
2023/05/28 07:35:01;;;;;;;10.13;4.70;;;29.20;86.20;;;;;;5086773;28;20453;-73
2023/05/28 07:37:27;;;;;;;8.77;4.13;;;28.80;85.70;;;;;;5090791;28;20123;-72
2023/05/28 07:39:53;;;;;;;13.38;4.50;;;28.60;85.10;;;;;;5087723;28;20055;-72
2023/05/28 07:42:19;;;;;;;11.38;4.35;;;28.90;85.00;;;;;;5093734;27;20082;-72
2023/05/28 07:44:45;;;;;;;13.18;4.88;;;28.90;85.80;;;;;;5091059;28;20031;-74
2023/05/28 07:47:11;;;;;;;10.32;4.15;;;29.00;83.90;;;;;;5090982;28;20123;-73
2023/05/28 07:49:36;;;;;;;14.45;5.30;;;28.70;84.50;;;;;;5093928;28;20043;-71
2023/05/28 07:52:02;;;;;;;13.45;4.55;;;28.60;85.40;;;;;;5106790;28;20438;-72
2023/05/28 07:54:28;;;;;;;11.75;4.63;;;28.10;85.30;;;;;;5094112;28;20051;-71
2023/05/28 07:56:54;;;;;;;10.80;4.00;;;27.70;85.20;;;;;;5087130;28;20032;-71
2023/05/28 07:59:21;;;;;;;14.20;4.60;;;27.60;85.40;;;;;;5089064;28;20400;-71
2023/05/28 08:01:47;;;;;;;8.65;3.78;;;27.40;85.60;;;;;;5091045;28;20024;-70
2023/05/28 08:04:12;;;;;;;9.68;3.55;;;26.90;86.60;;;;;;5087148;28;20025;-70
2023/05/28 08:06:38;;;;;;;8.98;3.80;;;26.80;87.30;;;;;;5088490;28;20145;-69
2023/05/28 08:09:03;;;;;;;8.05;3.38;;;26.40;87.20;;;;;;5086692;28;20754;-71
2023/05/28 08:11:29;;;;;;;9.60;3.47;;;26.10;87.50;;;;;;5086893;28;20112;-71
2023/05/28 08:13:55;;;;;;;12.82;2.65;;;25.60;89.70;;;;;;5083554;28;20043;-70
2023/05/28 08:16:20;;;;;;;6.70;2.58;;;25.20;90.10;;;;;;5090466;28;20118;-71
2023/05/28 08:18:46;;;;;;;9.00;3.13;;;25.00;88.80;;;;;;5084851;28;20040;-71
2023/05/28 08:21:11;;;;;;;7.25;2.45;;;24.80;89.70;;;;;;5085285;28;20564;-71
2023/05/28 08:23:37;;;;;;;6.47;2.22;;;24.50;90.50;;;;;;5087378;28;20391;-71
2023/05/28 08:26:03;;;;;;;14.43;2.40;;;24.20;90.80;;;;;;5091125;28;20043;-72
2023/05/28 08:28:30;;;;;;;9.70;3.42;;;23.80;91.50;;;;;;5086015;28;20047;-70
2023/05/28 08:30:56;;;;;;;10.32;2.50;;;23.70;91.60;;;;;;5093499;28;20488;-72
2023/05/28 08:33:22;;;;;;;10.57;3.00;;;23.40;92.00;;;;;;5085270;28;20030;-71
2023/05/28 08:35:48;;;;;;;9.68;2.40;;;23.20;92.80;;;;;;5083010;28;20051;-71
2023/05/28 08:38:13;;;;;;;6.47;2.42;;;23.00;93.00;;;;;;5082769;28;20036;-71
2023/05/28 08:40:42;;;;;;;10.57;2.88;;;23.00;93.40;;;;;;5087179;28;20051;-71
2023/05/28 08:43:08;;;;;;;8.02;3.25;;;23.10;93.50;;;;;;5084688;28;20051;-72
2023/05/28 08:45:35;;;;;;;11.57;3.00;;;23.00;93.60;;;;;;5086729;28;20341;-71
2023/05/28 08:48:00;;;;;;;5.70;2.60;;;22.90;93.20;;;;;;5084808;28;20036;-71
2023/05/28 08:50:28;;;;;;;9.63;2.53;;;22.90;92.90;;;;;;5097261;28;20040;-70
2023/05/28 08:52:56;;;;;;;7.45;2.10;;;22.80;93.40;;;;;;5094621;28;20081;-70
2023/05/28 08:55:21;;;;;;;15.57;2.63;;;22.70;93.50;;;;;;5084187;28;20067;-71
2023/05/28 08:57:47;;;;;;;10.20;2.28;;;22.60;93.30;;;;;;5084248;28;20488;-71
2023/05/28 09:00:13;;;;;;;7.65;2.10;;;22.70;93.70;;;;;;5083688;28;20403;-70
2023/05/28 09:02:39;;;;;;;7.68;1.92;;;22.70;93.50;;;;;;5083745;28;20607;-70
2023/05/28 09:05:05;;;;;;;9.13;2.03;;;22.80;93.70;;;;;;5084345;28;20020;-69
2023/05/28 09:07:32;;;;;;;8.27;2.22;;;23.00;94.00;;;;;;5082328;28;20657;-70
2023/05/28 09:09:58;;;;;;;9.68;2.65;;;23.00;93.40;;;;;;5083850;28;20023;-71
2023/05/28 09:12:24;;;;;;;12.00;2.33;;;23.00;93.60;;;;;;5091856;28;20401;-70
2023/05/28 09:14:52;;;;;;;13.65;2.70;;;22.90;93.30;;;;;;5080378;28;21197;-70
2023/05/28 09:17:37;;;;;;;9.98;2.50;;;22.80;93.50;;;;;;5083465;28;20036;-71
2023/05/28 09:20:11;;;;;;;7.10;2.22;;;22.90;93.30;;;;;;5085324;28;20066;-70
2023/05/28 09:22:37;;;;;;;12.98;2.35;;;22.70;92.30;;;;;;5086362;28;20028;-70
2023/05/28 09:25:04;;;;;;;8.38;2.15;;;22.90;92.10;;;;;;5081343;28;21955;-70
2023/05/28 09:27:29;;;;;;;10.93;2.47;;;22.90;92.30;;;;;;5086408;28;20127;-70
2023/05/28 09:29:55;;;;;;;11.38;2.80;;;23.10;92.60;;;;;;5084133;28;20107;-71
2023/05/28 09:32:21;;;;;;;7.85;2.05;;;23.30;93.00;;;;;;5083691;28;20563;-70
2023/05/28 09:34:49;;;;;;;8.95;1.70;;;23.20;92.60;;;;;;5081580;28;20028;-71
2023/05/28 09:37:19;;;;;;;7.40;1.90;;;23.30;92.40;;;;;;5081076;28;20081;-71
2023/05/28 09:39:45;;;;;;;11.05;2.00;;;23.40;92.60;;;;;;5085563;28;20128;-72
2023/05/28 09:42:11;;;;;;;12.88;3.05;;;23.50;92.20;;;;;;5087646;28;20078;-70
2023/05/28 09:44:38;;;;;;;12.02;2.85;;;23.20;91.30;;;;;;5084046;28;20039;-70
2023/05/28 09:47:17;;;;;;;7.55;2.08;;;23.20;91.40;;;;;;5101485;28;20028;-71
2023/05/28 09:49:48;;;;;;;9.05;2.33;;;23.30;91.50;;;;;;5098943;28;20119;-71
2023/05/28 09:52:17;;;;;;;;;;;23.30;90.80;;;;;;5085922;28;20028;-71
2023/05/28 09:54:49;;;;;;;4.68;1.33;;;23.10;90.60;;;;;;5085400;28;19923;-72
2023/05/28 09:57:17;;;;;;;5.50;1.52;;;23.10;90.80;;;;;;5084220;28;20488;-70
2023/05/28 09:59:46;;;;;;;8.45;2.13;;;23.10;91.10;;;;;;5084374;28;20126;-72
2023/05/28 10:02:32;;;;;;;4.82;1.85;;;23.10;91.10;;;;;;5083648;28;20086;-71
2023/05/28 10:05:00;;;;;;;11.30;1.92;;;23.00;91.00;;;;;;5083564;28;20043;-70
2023/05/28 10:07:28;;;;;;;8.57;1.83;;;23.00;91.80;;;;;;5087520;28;20036;-70
2023/05/28 10:09:57;;;;;;;6.97;2.15;;;23.10;91.80;;;;;;5086865;28;20023;-70
2023/05/28 10:12:28;;;;;;;9.82;2.58;;;23.20;91.30;;;;;;5089041;28;20036;-69
2023/05/28 10:14:54;;;;;;;9.65;1.90;;;23.20;91.10;;;;;;5086357;28;20039;-71
2023/05/28 10:17:21;;;;;;;7.72;2.33;;;23.40;91.00;;;;;;5088218;28;20081;-71
2023/05/28 10:19:47;;;;;;;8.90;1.70;;;23.40;91.00;;;;;;5089416;28;20047;-72
2023/05/28 10:22:13;;;;;;;7.55;2.15;;;23.40;91.60;;;;;;5085182;28;20423;-72
2023/05/28 10:24:39;;;;;;;6.97;2.58;;;23.40;91.20;;;;;;5083562;28;20032;-71
2023/05/28 10:27:06;;;;;;;10.02;2.00;;;23.50;92.60;;;;;;5087316;28;20039;-70
2023/05/28 10:29:43;;;;;;;7.55;2.47;;;23.30;92.70;;;;;;5091983;28;20040;-71
2023/05/28 10:32:13;;;;;;;8.65;3.10;;;23.10;92.80;;;;;;5092120;28;20496;-70
2023/05/28 10:34:38;;;;;;;10.05;2.30;;;23.10;93.50;;;;;;5090156;28;20107;-72
2023/05/28 10:37:07;;;;;;;8.60;3.42;;;23.10;93.70;;;;;;5093631;27;20132;-72
2023/05/28 10:39:47;;;;;;;10.82;2.67;;;23.10;93.50;;;;;;5096252;28;20498;-72
2023/05/28 10:42:18;;;;;;;8.15;2.40;;;23.30;93.30;;;;;;5093453;28;20508;-72
2023/05/28 10:45:09;;;;;;;6.95;2.72;;;23.20;93.50;;;;;;5097914;28;20059;-71
2023/05/28 10:47:40;;;;;;;11.15;3.15;;;23.10;93.20;;;;;;5101886;28;20039;-71
2023/05/28 10:50:08;;;;;;;;;;;22.90;93.60;;;;;;5095998;28;20039;-70
2023/05/28 10:52:34;;;;;;;10.32;2.25;;;22.90;93.90;;;;;;5085138;28;20006;-70
2023/05/28 10:55:05;;;;;;;6.22;2.30;;;22.90;93.80;;;;;;5092893;28;20611;-70
2023/05/28 10:57:45;;;;;;;9.38;2.75;;;22.80;93.90;;;;;;5105884;27;20048;-73
2023/05/28 11:00:39;;;;;;;9.07;3.05;;;22.80;94.20;;;;;;5095673;27;20036;-70
2023/05/28 11:03:05;;;;;;;7.68;2.17;;;22.90;94.20;;;;;;5095583;28;20117;-70
2023/05/28 11:05:30;;;;;;;8.68;2.38;;;22.90;93.80;;;;;;5090958;28;20480;-71
2023/05/28 11:07:57;;;;;;;7.13;2.33;;;23.00;94.20;;;;;;5089611;28;20451;-70
2023/05/28 11:10:23;;;;;;;8.50;2.47;;;23.10;94.20;;;;;;5093684;27;20043;-71
2023/05/28 11:12:50;;;;;;;10.82;2.95;;;23.10;94.20;;;;;;5091204;28;20039;-72
2023/05/28 11:15:16;;;;;;;10.07;2.90;;;23.10;94.40;;;;;;5095465;28;20040;-72
2023/05/28 11:17:45;;;;;;;8.38;2.95;;;22.90;94.20;;;;;;5095664;28;20080;-72
2023/05/28 11:20:24;;;;;;;12.50;2.60;;;22.70;93.90;;;;;;5095393;28;20055;-70
2023/05/28 11:22:50;;;;;;;7.40;3.15;;;22.50;94.50;;;;;;5096797;27;20555;-70
2023/05/28 11:25:22;;;;;;;10.48;2.67;;;22.50;94.60;;;;;;5090546;28;20036;-70
2023/05/28 11:27:50;;;;;;;11.25;2.67;;;22.70;94.90;;;;;;5093337;28;20059;-70
2023/05/28 11:30:20;;;;;;;11.52;2.80;;;22.70;94.70;;;;;;5095997;27;20039;-70
2023/05/28 11:32:47;;;;;;;11.77;3.38;;;22.80;94.10;;;;;;5094006;28;20066;-72
2023/05/28 11:35:14;;;;;;;9.05;2.30;;;22.80;94.60;;;;;;5088779;28;20111;-72
2023/05/28 11:37:41;;;;;;;9.02;2.58;;;22.60;94.40;;;;;;5090474;28;20039;-72
2023/05/28 11:40:12;;;;;;;8.43;2.65;;;22.70;94.90;;;;;;5093163;28;20072;-72
2023/05/28 11:42:44;;;;;;;12.27;2.50;;;22.90;94.60;;;;;;5111350;28;20051;-72
2023/05/28 11:45:11;;;;;;;7.05;2.58;;;22.90;94.10;;;;;;5103355;28;20072;-72
2023/05/28 11:47:37;;;;;;;6.47;2.58;;;22.90;94.30;;;;;;5092649;28;20044;-72
2023/05/28 11:50:14;;;;;;;8.93;2.63;;;22.70;94.50;;;;;;5093339;28;20036;-72
2023/05/28 11:52:40;;;;;;;8.15;2.63;;;22.60;93.90;;;;;;5086793;28;20097;-70
2023/05/28 11:55:06;;;;;;;9.35;2.72;;;22.50;94.40;;;;;;5090882;28;20491;-71
2023/05/28 11:57:39;;;;;;;8.63;2.70;;;22.40;94.60;;;;;;5097017;28;20071;-70
2023/05/28 12:00:27;;;;;;;10.50;2.45;;;22.40;94.70;;;;;;5091944;28;20035;-70
2023/05/28 12:02:53;;;;;;;7.68;1.83;;;22.60;94.50;;;;;;5090985;28;20403;-70
2023/05/28 12:05:25;;;;;;;8.60;2.60;;;22.70;94.60;;;;;;5097795;28;20028;-71
2023/05/28 12:07:52;;;;;;;10.13;2.75;;;22.80;94.20;;;;;;5090178;28;20074;-72
2023/05/28 12:10:22;;;;;;;11.68;2.90;;;22.90;94.10;;;;;;5094430;28;20039;-72
2023/05/28 12:13:14;;;;;;;13.85;3.05;;;23.00;93.90;;;;;;5093748;28;20032;-72
2023/05/28 12:15:40;;;;;;;9.50;2.30;;;23.10;94.10;;;;;;5069871;28;20036;-72
2023/05/28 12:18:08;;;;;;;10.55;2.35;;;23.10;93.20;;;;;;5091410;28;20080;-72
2023/05/28 12:20:51;;;;;;;7.72;2.13;;;22.90;92.80;;;;;;5090876;28;20036;-72
2023/05/28 12:23:23;;;;;;;13.68;3.22;;;23.00;93.20;;;;;;5094243;28;20503;-72
2023/05/28 12:25:52;;;;;;;10.35;2.60;;;22.80;93.20;;;;;;5093790;28;20032;-70
2023/05/28 12:28:20;;;;;;;7.72;2.95;;;22.80;93.00;;;;;;5092969;28;20032;-70
2023/05/28 12:30:54;;;;;;;8.15;2.22;;;22.80;93.10;;;;;;5093490;28;20054;-70
2023/05/28 12:33:21;;;;;;;10.48;2.50;;;22.80;92.50;;;;;;5092194;28;20098;-70
2023/05/28 12:35:47;;;;;;;8.40;2.60;;;22.70;92.80;;;;;;5096980;28;20044;-72
2023/05/28 12:38:13;;;;;;;10.77;2.33;;;22.70;92.60;;;;;;5102563;27;20028;-71
2023/05/28 12:40:40;;;;;;;8.18;2.47;;;22.90;93.10;;;;;;5113551;28;20744;-72
2023/05/28 12:43:06;;;;;;;12.50;2.53;;;23.10;92.40;;;;;;5095016;28;20126;-71
2023/05/28 12:45:32;;;;;;;8.20;2.38;;;23.10;92.00;;;;;;5097550;28;20529;-70